To NAV CANADA Home Page Login to a new session Search on AWWS site Feedback and Comments Disclaimer Vers la page française équivalente Tips FAQ What's new on the site To the Forecasts and Observations / NOTAM section To "File a Flight Plan" website Publications and other links Update of the User's profile FIC Telephone Numbers My Weather Data Folder Route Weather Data Regional Weather Data Local Weather Data To the Forecasts and Observations / NOTAM section
Request Generated 08/22/2017 at 03:17:12 UTC . Weather information available at that time is displayed.

METAR/TAF

SAINT JOHN/NB    

METAR CYSJ 220300Z 18003KT 15SM OVC290 15/14 A2997 RMK CI8 SLP152
DENSITY ALT 400FT=
METAR CYSJ 220200Z 19004KT 15SM BKN290 16/14 A2998 RMK CI6 SLP154
DENSITY ALT 500FT=
METAR CYSJ 220100Z 19003KT 15SM SCT290 17/15 A2999 RMK CI4 SLP156
DENSITY ALT 600FT=

TAF CYSJ 212338Z 2200/2212 23005KT P6SM SCT240
FM220500 20005KT P6SM SKC PROB30 2206/2212 3/4SM BR
RMK NXT FCST BY 220600Z=
Your time UTC time
Weather data provided by Environment Canada and NAV CANADA